sensor_id;sensor_type;location;lat;lon;timestamp;pressure;altitude;pressure_sealevel;temperature;humidity
72925;BME280;61070;50.794;7.054;2022-07-22T00:02:08;101482.75;;;17.50;82.65
72925;BME280;61070;50.794;7.054;2022-07-22T00:04:34;101485.44;;;17.50;83.02
72925;BME280;61070;50.794;7.054;2022-07-22T00:06:59;101482.66;;;17.53;82.87
72925;BME280;61070;50.794;7.054;2022-07-22T00:09:24;101480.38;;;17.39;83.12
72925;BME280;61070;50.794;7.054;2022-07-22T00:11:50;101475.78;;;17.42;82.64
72925;BME280;61070;50.794;7.054;2022-07-22T00:14:18;101477.63;;;17.40;82.70
72925;BME280;61070;50.794;7.054;2022-07-22T00:16:43;101474.09;;;17.40;82.76
72925;BME280;61070;50.794;7.054;2022-07-22T00:19:09;101471.97;;;17.51;82.67
72925;BME280;61070;50.794;7.054;2022-07-22T00:21:35;101475.59;;;17.50;82.34
72925;BME280;61070;50.794;7.054;2022-07-22T00:24:00;101472.75;;;17.56;82.09
72925;BME280;61070;50.794;7.054;2022-07-22T00:26:25;101474.66;;;17.51;82.59
72925;BME280;61070;50.794;7.054;2022-07-22T00:28:51;101478.16;;;17.53;81.97
72925;BME280;61070;50.794;7.054;2022-07-22T00:31:16;101470.22;;;17.50;81.85
72925;BME280;61070;50.794;7.054;2022-07-22T00:33:42;101476.25;;;17.58;82.33
72925;BME280;61070;50.794;7.054;2022-07-22T00:36:08;101472.28;;;17.40;82.98
72925;BME280;61070;50.794;7.054;2022-07-22T00:38:33;101472.13;;;17.46;82.76
72925;BME280;61070;50.794;7.054;2022-07-22T00:40:59;101463.41;;;17.38;83.04
72925;BME280;61070;50.794;7.054;2022-07-22T00:43:24;101463.31;;;17.41;82.59
72925;BME280;61070;50.794;7.054;2022-07-22T00:45:50;101468.00;;;17.35;82.87
72925;BME280;61070;50.794;7.054;2022-07-22T00:48:15;101467.75;;;17.42;82.72
72925;BME280;61070;50.794;7.054;2022-07-22T00:50:40;101469.31;;;17.51;81.69
72925;BME280;61070;50.794;7.054;2022-07-22T00:53:06;101469.75;;;17.36;81.93
72925;BME280;61070;50.794;7.054;2022-07-22T00:55:33;101466.81;;;17.45;81.38
72925;BME280;61070;50.794;7.054;2022-07-22T00:57:59;101465.16;;;17.39;81.13
72925;BME280;61070;50.794;7.054;2022-07-22T01:00:24;101460.00;;;17.33;81.40
72925;BME280;61070;50.794;7.054;2022-07-22T01:02:49;101460.94;;;17.31;81.14
72925;BME280;61070;50.794;7.054;2022-07-22T01:05:15;101458.19;;;17.34;80.85
72925;BME280;61070;50.794;7.054;2022-07-22T01:07:40;101459.19;;;17.30;81.12
72925;BME280;61070;50.794;7.054;2022-07-22T01:10:06;101459.44;;;17.21;81.21
72925;BME280;61070;50.794;7.054;2022-07-22T01:12:32;101459.44;;;17.21;81.54
72925;BME280;61070;50.794;7.054;2022-07-22T01:14:57;101462.16;;;17.19;81.02
72925;BME280;61070;50.794;7.054;2022-07-22T01:17:23;101456.94;;;17.14;81.57
72925;BME280;61070;50.794;7.054;2022-07-22T01:19:49;101460.97;;;17.29;81.23
72925;BME280;61070;50.794;7.054;2022-07-22T01:22:15;101460.88;;;17.34;80.76
72925;BME280;61070;50.794;7.054;2022-07-22T01:24:40;101456.47;;;17.31;80.95
72925;BME280;61070;50.794;7.054;2022-07-22T01:27:05;101452.16;;;17.26;80.91
72925;BME280;61070;50.794;7.054;2022-07-22T01:29:30;101453.81;;;17.30;81.13
72925;BME280;61070;50.794;7.054;2022-07-22T01:31:56;101461.06;;;17.26;81.07
72925;BME280;61070;50.794;7.054;2022-07-22T01:34:22;101457.19;;;17.38;81.20
72925;BME280;61070;50.794;7.054;2022-07-22T01:36:47;101460.78;;;17.37;80.62
72925;BME280;61070;50.794;7.054;2022-07-22T01:39:13;101452.03;;;17.30;80.88
72925;BME280;61070;50.794;7.054;2022-07-22T01:41:39;101456.59;;;17.27;81.07
72925;BME280;61070;50.794;7.054;2022-07-22T01:44:04;101454.59;;;17.35;80.35
72925;BME280;61070;50.794;7.054;2022-07-22T01:46:30;101453.78;;;17.31;80.63
72925;BME280;61070;50.794;7.054;2022-07-22T01:48:56;101449.44;;;17.27;80.54
72925;BME280;61070;50.794;7.054;2022-07-22T01:51:21;101446.19;;;17.16;81.31
72925;BME280;61070;50.794;7.054;2022-07-22T01:53:47;101444.22;;;17.23;81.34
72925;BME280;61070;50.794;7.054;2022-07-22T01:56:12;101446.91;;;17.23;81.43
72925;BME280;61070;50.794;7.054;2022-07-22T01:58:37;101443.88;;;17.35;80.00
72925;BME280;61070;50.794;7.054;2022-07-22T02:01:03;101453.91;;;17.27;80.28
72925;BME280;61070;50.794;7.054;2022-07-22T02:03:28;101448.28;;;17.37;79.79
72925;BME280;61070;50.794;7.054;2022-07-22T02:05:54;101451.19;;;17.28;80.21
72925;BME280;61070;50.794;7.054;2022-07-22T02:08:19;101447.84;;;17.20;80.34
72925;BME280;61070;50.794;7.054;2022-07-22T02:10:45;101444.47;;;17.13;80.58
72925;BME280;61070;50.794;7.054;2022-07-22T02:13:10;101443.63;;;17.11;80.55
72925;BME280;61070;50.794;7.054;2022-07-22T02:15:36;101435.31;;;17.22;80.24
72925;BME280;61070;50.794;7.054;2022-07-22T02:18:17;101447.94;;;17.17;80.19
72925;BME280;61070;50.794;7.054;2022-07-22T02:20:44;101444.56;;;17.09;81.08
72925;BME280;61070;50.794;7.054;2022-07-22T02:23:10;101444.44;;;17.15;80.67
72925;BME280;61070;50.794;7.054;2022-07-22T02:25:37;101447.09;;;17.15;80.63
72925;BME280;61070;50.794;7.054;2022-07-22T02:28:02;101448.91;;;17.14;80.85
72925;BME280;61070;50.794;7.054;2022-07-22T02:30:29;101443.53;;;17.14;80.83
72925;BME280;61070;50.794;7.054;2022-07-22T02:32:55;101455.97;;;17.17;80.91
72925;BME280;61070;50.794;7.054;2022-07-22T02:35:21;101440.88;;;17.14;80.68
72925;BME280;61070;50.794;7.054;2022-07-22T02:37:46;101448.75;;;17.19;80.73
72925;BME280;61070;50.794;7.054;2022-07-22T02:40:11;101446.84;;;17.24;80.40
72925;BME280;61070;50.794;7.054;2022-07-22T02:42:37;101444.28;;;17.20;80.48
72925;BME280;61070;50.794;7.054;2022-07-22T02:45:03;101448.84;;;17.16;80.71
72925;BME280;61070;50.794;7.054;2022-07-22T02:47:28;101448.91;;;17.14;80.57
72925;BME280;61070;50.794;7.054;2022-07-22T02:49:54;101443.41;;;17.19;80.72
72925;BME280;61070;50.794;7.054;2022-07-22T02:52:19;101446.19;;;17.16;80.29
72925;BME280;61070;50.794;7.054;2022-07-22T02:54:44;101445.88;;;17.27;80.31
72925;BME280;61070;50.794;7.054;2022-07-22T02:57:10;101453.91;;;17.27;80.34
72925;BME280;61070;50.794;7.054;2022-07-22T02:59:35;101444.13;;;17.26;80.21
72925;BME280;61070;50.794;7.054;2022-07-22T03:02:01;101445.00;;;17.26;79.88
72925;BME280;61070;50.794;7.054;2022-07-22T03:04:26;101442.47;;;17.20;80.21
72925;BME280;61070;50.794;7.054;2022-07-22T03:06:52;101446.03;;;17.21;80.29
72925;BME280;61070;50.794;7.054;2022-07-22T03:09:18;101446.31;;;17.10;79.90
72925;BME280;61070;50.794;7.054;2022-07-22T03:11:44;101449.00;;;17.10;79.96
72925;BME280;61070;50.794;7.054;2022-07-22T03:14:09;101449.91;;;17.10;80.49
72925;BME280;61070;50.794;7.054;2022-07-22T03:16:35;101449.81;;;17.13;79.76
72925;BME280;61070;50.794;7.054;2022-07-22T03:19:00;101454.25;;;17.14;79.43
72925;BME280;61070;50.794;7.054;2022-07-22T03:21:26;101451.78;;;17.07;79.51
72925;BME280;61070;50.794;7.054;2022-07-22T03:23:51;101449.81;;;17.13;79.42
72925;BME280;61070;50.794;7.054;2022-07-22T03:26:23;101456.28;;;17.05;80.06
72925;BME280;61070;50.794;7.054;2022-07-22T03:28:49;101441.06;;;17.07;79.74
72925;BME280;61070;50.794;7.054;2022-07-22T03:31:14;101449.13;;;17.05;80.19
72925;BME280;61070;50.794;7.054;2022-07-22T03:33:40;101443.63;;;17.11;80.07
72925;BME280;61070;50.794;7.054;2022-07-22T03:36:05;101441.03;;;17.08;80.25
72925;BME280;61070;50.794;7.054;2022-07-22T03:38:31;101439.69;;;17.25;79.24
72925;BME280;61070;50.794;7.054;2022-07-22T03:40:56;101442.53;;;17.18;79.18
72925;BME280;61070;50.794;7.054;2022-07-22T03:43:22;101439.94;;;17.15;79.53
72925;BME280;61070;50.794;7.054;2022-07-22T03:45:47;101446.91;;;17.21;79.39
72925;BME280;61070;50.794;7.054;2022-07-22T03:48:12;101447.06;;;17.16;79.38
72925;BME280;61070;50.794;7.054;2022-07-22T03:50:38;101448.31;;;17.36;78.82
72925;BME280;61070;50.794;7.054;2022-07-22T03:53:03;101444.72;;;17.37;78.89
72925;BME280;61070;50.794;7.054;2022-07-22T03:55:28;101444.13;;;17.26;79.22
72925;BME280;61070;50.794;7.054;2022-07-22T03:57:54;101446.03;;;17.22;79.27
72925;BME280;61070;50.794;7.054;2022-07-22T04:00:19;101447.72;;;17.25;79.59
72925;BME280;61070;50.794;7.054;2022-07-22T04:02:44;101437.81;;;17.28;79.05
72925;BME280;61070;50.794;7.054;2022-07-22T04:05:09;101437.94;;;17.24;79.17
72925;BME280;61070;50.794;7.054;2022-07-22T04:07:35;101435.50;;;17.14;79.77
72925;BME280;61070;50.794;7.054;2022-07-22T04:10:00;101431.91;;;17.15;79.60
72925;BME280;61070;50.794;7.054;2022-07-22T04:12:35;101434.59;;;17.15;79.72
72925;BME280;61070;50.794;7.054;2022-07-22T04:15:05;101434.59;;;17.15;80.00
72925;BME280;61070;50.794;7.054;2022-07-22T04:17:31;101438.72;;;17.27;79.06
72925;BME280;61070;50.794;7.054;2022-07-22T04:19:56;101440.53;;;17.27;79.62
72925;BME280;61070;50.794;7.054;2022-07-22T04:22:22;101432.34;;;17.33;79.35
72925;BME280;61070;50.794;7.054;2022-07-22T04:24:48;101437.19;;;17.18;79.20
72925;BME280;61070;50.794;7.054;2022-07-22T04:27:13;101438.63;;;17.30;78.93
72925;BME280;61070;50.794;7.054;2022-07-22T04:29:39;101433.13;;;17.36;79.51
72925;BME280;61070;50.794;7.054;2022-07-22T04:32:05;101439.47;;;17.32;79.59
72925;BME280;61070;50.794;7.054;2022-07-22T04:34:30;101428.16;;;17.21;79.96
72925;BME280;61070;50.794;7.054;2022-07-22T04:36:55;101436.09;;;17.26;79.85
72925;BME280;61070;50.794;7.054;2022-07-22T04:39:21;101430.50;;;17.35;79.31
72925;BME280;61070;50.794;7.054;2022-07-22T04:41:46;101439.84;;;17.18;80.20
72925;BME280;61070;50.794;7.054;2022-07-22T04:44:11;101438.78;;;17.26;79.94
72925;BME280;61070;50.794;7.054;2022-07-22T04:46:36;101442.19;;;17.31;79.75
72925;BME280;61070;50.794;7.054;2022-07-22T04:49:02;101442.78;;;17.42;78.93
72925;BME280;61070;50.794;7.054;2022-07-22T04:51:27;101441.78;;;17.46;78.78
72925;BME280;61070;50.794;7.054;2022-07-22T04:53:52;101440.03;;;17.43;78.76
72925;BME280;61070;50.794;7.054;2022-07-22T04:56:18;101439.31;;;17.38;79.00
72925;BME280;61070;50.794;7.054;2022-07-22T04:58:43;101456.31;;;17.37;78.52
72925;BME280;61070;50.794;7.054;2022-07-22T05:01:08;101440.22;;;17.37;78.41
72925;BME280;61070;50.794;7.054;2022-07-22T05:03:37;101457.31;;;17.33;78.92
72925;BME280;61070;50.794;7.054;2022-07-22T05:06:03;101454.66;;;17.32;79.36
72925;BME280;61070;50.794;7.054;2022-07-22T05:08:29;101452.06;;;17.29;79.39
72925;BME280;61070;50.794;7.054;2022-07-22T05:10:55;101452.75;;;17.37;79.26
72925;BME280;61070;50.794;7.054;2022-07-22T05:13:20;101460.13;;;17.60;78.31
72925;BME280;61070;50.794;7.054;2022-07-22T05:15:45;101453.47;;;17.42;79.00
72925;BME280;61070;50.794;7.054;2022-07-22T05:18:11;101453.56;;;17.39;78.43
72925;BME280;61070;50.794;7.054;2022-07-22T05:20:36;101452.69;;;17.38;78.69
72925;BME280;61070;50.794;7.054;2022-07-22T05:23:02;101443.69;;;17.41;78.68
72925;BME280;61070;50.794;7.054;2022-07-22T05:25:27;101453.78;;;17.33;78.79
72925;BME280;61070;50.794;7.054;2022-07-22T05:27:54;101452.84;;;17.34;78.94
72925;BME280;61070;50.794;7.054;2022-07-22T05:30:20;101455.53;;;17.32;78.67
72925;BME280;61070;50.794;7.054;2022-07-22T05:32:45;101441.88;;;17.41;78.60
72925;BME280;61070;50.794;7.054;2022-07-22T05:35:11;101444.72;;;17.37;79.08
72925;BME280;61070;50.794;7.054;2022-07-22T05:37:36;101446.13;;;17.50;78.60
72925;BME280;61070;50.794;7.054;2022-07-22T05:40:02;101443.44;;;17.50;78.35
72925;BME280;61070;50.794;7.054;2022-07-22T05:42:28;101438.91;;;17.52;78.20
72925;BME280;61070;50.794;7.054;2022-07-22T05:44:53;101440.84;;;17.47;78.45
72925;BME280;61070;50.794;7.054;2022-07-22T05:47:18;101445.25;;;17.50;78.17
72925;BME280;61070;50.794;7.054;2022-07-22T05:49:43;101436.63;;;17.38;78.42
72925;BME280;61070;50.794;7.054;2022-07-22T05:52:09;101430.81;;;17.54;77.89
72925;BME280;61070;50.794;7.054;2022-07-22T05:54:34;101433.44;;;17.55;77.79
72925;BME280;61070;50.794;7.054;2022-07-22T05:57:00;101422.63;;;17.60;77.57
72925;BME280;61070;50.794;7.054;2022-07-22T05:59:25;101420.81;;;17.60;77.39
72925;BME280;61070;50.794;7.054;2022-07-22T06:01:50;101421.78;;;17.58;77.83
72925;BME280;61070;50.794;7.054;2022-07-22T06:04:16;101426.19;;;17.60;77.77
72925;BME280;61070;50.794;7.054;2022-07-22T06:06:41;101425.84;;;17.72;77.33
72925;BME280;61070;50.794;7.054;2022-07-22T06:09:06;101431.25;;;17.71;76.97
72925;BME280;61070;50.794;7.054;2022-07-22T06:11:31;101434.72;;;17.74;76.65
72925;BME280;61070;50.794;7.054;2022-07-22T06:13:57;101432.75;;;17.81;76.19
72925;BME280;61070;50.794;7.054;2022-07-22T06:16:22;101427.34;;;17.83;76.38
72925;BME280;61070;50.794;7.054;2022-07-22T06:18:47;101432.75;;;17.81;76.38
72925;BME280;61070;50.794;7.054;2022-07-22T06:21:13;101432.91;;;18.04;75.39
72925;BME280;61070;50.794;7.054;2022-07-22T06:23:38;101426.13;;;17.93;76.15
72925;BME280;61070;50.794;7.054;2022-07-22T06:26:03;101432.41;;;17.92;76.32
72925;BME280;61070;50.794;7.054;2022-07-22T06:28:29;101426.47;;;17.82;76.60
72925;BME280;61070;50.794;7.054;2022-07-22T06:30:54;101434.16;;;17.93;76.44
72925;BME280;61070;50.794;7.054;2022-07-22T06:33:19;101437.50;;;18.01;76.24
72925;BME280;61070;50.794;7.054;2022-07-22T06:35:45;101435.16;;;18.18;75.80
72925;BME280;61070;50.794;7.054;2022-07-22T06:38:10;101433.13;;;18.26;75.13
72925;BME280;61070;50.794;7.054;2022-07-22T06:40:36;101435.06;;;18.21;75.38
72925;BME280;61070;50.794;7.054;2022-07-22T06:43:02;101441.06;;;18.29;75.05
72925;BME280;61070;50.794;7.054;2022-07-22T06:45:28;101426.72;;;18.30;74.81
72925;BME280;61070;50.794;7.054;2022-07-22T06:47:53;101425.25;;;18.20;75.54
72925;BME280;61070;50.794;7.054;2022-07-22T06:50:18;101418.53;;;18.35;74.56
72925;BME280;61070;50.794;7.054;2022-07-22T06:52:44;101416.22;;;18.23;74.96
72925;BME280;61070;50.794;7.054;2022-07-22T06:55:09;101417.75;;;18.31;74.68
72925;BME280;61070;50.794;7.054;2022-07-22T06:57:35;101418.16;;;18.46;73.32
72925;BME280;61070;50.794;7.054;2022-07-22T07:00:01;101413.66;;;18.48;73.65
72925;BME280;61070;50.794;7.054;2022-07-22T07:02:26;101416.22;;;18.51;74.01
72925;BME280;61070;50.794;7.054;2022-07-22T07:04:52;101417.03;;;18.53;74.33
72925;BME280;61070;50.794;7.054;2022-07-22T07:07:17;101411.22;;;18.67;74.19
72925;BME280;61070;50.794;7.054;2022-07-22T07:09:42;101420.13;;;18.41;74.24
72925;BME280;61070;50.794;7.054;2022-07-22T07:12:08;101415.09;;;18.58;74.61
72925;BME280;61070;50.794;7.054;2022-07-22T07:14:33;101412.59;;;18.52;74.37
72925;BME280;61070;50.794;7.054;2022-07-22T07:16:59;101415.03;;;18.59;73.99
72925;BME280;61070;50.794;7.054;2022-07-22T07:19:24;101419.38;;;18.63;73.30
72925;BME280;61070;50.794;7.054;2022-07-22T07:21:49;101420.94;;;18.43;74.96
72925;BME280;61070;50.794;7.054;2022-07-22T07:24:14;101419.94;;;18.47;74.41
72925;BME280;61070;50.794;7.054;2022-07-22T07:26:40;101422.38;;;18.26;75.17
72925;BME280;61070;50.794;7.054;2022-07-22T07:29:05;101414.75;;;18.41;74.61
72925;BME280;61070;50.794;7.054;2022-07-22T07:31:31;101415.16;;;18.28;75.97
72925;BME280;61070;50.794;7.054;2022-07-22T07:33:57;101417.03;;;18.26;76.62
72925;BME280;61070;50.794;7.054;2022-07-22T07:36:23;101411.66;;;18.26;76.99
72925;BME280;61070;50.794;7.054;2022-07-22T07:38:49;101413.69;;;18.18;77.17
72925;BME280;61070;50.794;7.054;2022-07-22T07:41:15;101410.91;;;18.21;77.31
72925;BME280;61070;50.794;7.054;2022-07-22T07:43:40;101414.44;;;18.23;76.98
72925;BME280;61070;50.794;7.054;2022-07-22T07:46:06;101410.38;;;18.38;77.08
72925;BME280;61070;50.794;7.054;2022-07-22T07:48:31;101413.34;;;18.29;76.39
72925;BME280;61070;50.794;7.054;2022-07-22T07:50:57;101416.72;;;18.08;77.52
72925;BME280;61070;50.794;7.054;2022-07-22T07:53:22;101414.53;;;18.20;77.64
72925;BME280;61070;50.794;7.054;2022-07-22T07:55:47;101399.75;;;18.35;77.47
72925;BME280;61070;50.794;7.054;2022-07-22T07:58:13;101411.03;;;18.45;76.89
72925;BME280;61070;50.794;7.054;2022-07-22T08:00:38;101406.09;;;18.32;76.39
72925;BME280;61070;50.794;7.054;2022-07-22T08:03:04;101414.66;;;18.44;75.90
72925;BME280;61070;50.794;7.054;2022-07-22T08:05:30;101417.28;;;18.45;76.29
72925;BME280;61070;50.794;7.054;2022-07-22T08:07:55;101417.41;;;18.42;76.14
72925;BME280;61070;50.794;7.054;2022-07-22T08:10:21;101404.00;;;18.69;75.59
72925;BME280;61070;50.794;7.054;2022-07-22T08:12:47;101407.94;;;18.85;74.60
72925;BME280;61070;50.794;7.054;2022-07-22T08:15:13;101415.13;;;18.56;75.65
72925;BME280;61070;50.794;7.054;2022-07-22T08:17:38;101412.25;;;18.89;74.88
72925;BME280;61070;50.794;7.054;2022-07-22T08:20:05;101415.84;;;19.14;73.27
72925;BME280;61070;50.794;7.054;2022-07-22T08:22:31;101417.47;;;19.18;73.16
72925;BME280;61070;50.794;7.054;2022-07-22T08:24:56;101411.13;;;19.44;71.82
72925;BME280;61070;50.794;7.054;2022-07-22T08:27:21;101410.81;;;19.54;71.00
72925;BME280;61070;50.794;7.054;2022-07-22T08:29:47;101409.78;;;19.58;70.62
72925;BME280;61070;50.794;7.054;2022-07-22T08:32:12;101404.03;;;19.90;69.84
72925;BME280;61070;50.794;7.054;2022-07-22T08:34:38;101406.72;;;19.90;68.37
72925;BME280;61070;50.794;7.054;2022-07-22T08:37:03;101399.34;;;19.73;68.81
72925;BME280;61070;50.794;7.054;2022-07-22T08:39:28;101399.59;;;19.89;67.25
72925;BME280;61070;50.794;7.054;2022-07-22T08:41:56;101394.03;;;20.16;66.96
72925;BME280;61070;50.794;7.054;2022-07-22T08:44:21;101398.97;;;20.28;66.74
72925;BME280;61070;50.794;7.054;2022-07-22T08:46:47;101406.91;;;20.31;66.46
72925;BME280;61070;50.794;7.054;2022-07-22T08:49:14;101407.28;;;20.44;65.75
72925;BME280;61070;50.794;7.054;2022-07-22T08:51:39;101403.06;;;20.36;65.39
72925;BME280;61070;50.794;7.054;2022-07-22T08:54:04;101396.19;;;20.08;66.75
72925;BME280;61070;50.794;7.054;2022-07-22T08:56:30;101404.06;;;20.34;66.01
72925;BME280;61070;50.794;7.054;2022-07-22T08:58:55;101405.56;;;19.97;66.04
72925;BME280;61070;50.794;7.054;2022-07-22T09:01:20;101399.88;;;20.05;66.91
72925;BME280;61070;50.794;7.054;2022-07-22T09:03:48;101393.78;;;20.00;67.06
72925;BME280;61070;50.794;7.054;2022-07-22T09:06:15;101394.50;;;20.05;66.83
72925;BME280;61070;50.794;7.054;2022-07-22T09:08:56;101396.50;;;20.22;66.01
72925;BME280;61070;50.794;7.054;2022-07-22T09:11:24;101397.25;;;20.25;66.18
72925;BME280;61070;50.794;7.054;2022-07-22T09:13:50;101391.31;;;19.72;67.56
72925;BME280;61070;50.794;7.054;2022-07-22T09:16:18;101402.25;;;20.13;67.43
72925;BME280;61070;50.794;7.054;2022-07-22T09:19:02;101408.16;;;20.44;65.68
72925;BME280;61070;50.794;7.054;2022-07-22T09:21:29;101396.63;;;20.19;66.51
72925;BME280;61070;50.794;7.054;2022-07-22T09:23:55;101400.66;;;20.52;65.69
72925;BME280;61070;50.794;7.054;2022-07-22T09:26:32;101392.44;;;20.55;65.85
72925;BME280;61070;50.794;7.054;2022-07-22T09:28:58;101397.88;;;20.32;66.41
72925;BME280;61070;50.794;7.054;2022-07-22T09:31:32;101403.56;;;20.68;65.43
72925;BME280;61070;50.794;7.054;2022-07-22T09:33:58;101403.78;;;21.04;64.70
72925;BME280;61070;50.794;7.054;2022-07-22T09:36:23;101395.69;;;21.04;63.88
72925;BME280;61070;50.794;7.054;2022-07-22T09:38:49;101392.34;;;20.99;64.35
72925;BME280;61070;50.794;7.054;2022-07-22T09:41:15;101395.84;;;21.01;63.96
72925;BME280;61070;50.794;7.054;2022-07-22T09:43:40;101386.63;;;20.86;63.35
72925;BME280;61070;50.794;7.054;2022-07-22T09:46:06;101383.97;;;21.05;62.80
72925;BME280;61070;50.794;7.054;2022-07-22T09:48:31;101378.66;;;21.44;62.84
72925;BME280;61070;50.794;7.054;2022-07-22T09:50:58;101386.25;;;21.55;61.11
72925;BME280;61070;50.794;7.054;2022-07-22T09:53:28;101389.59;;;21.41;62.44
72925;BME280;61070;50.794;7.054;2022-07-22T09:55:54;101394.09;;;21.60;61.69
72925;BME280;61070;50.794;7.054;2022-07-22T09:58:20;101391.78;;;21.71;61.29
72925;BME280;61070;50.794;7.054;2022-07-22T10:00:46;101394.91;;;21.62;62.05
72925;BME280;61070;50.794;7.054;2022-07-22T10:03:17;101379.69;;;21.79;61.81
72925;BME280;61070;50.794;7.054;2022-07-22T10:05:43;101381.44;;;21.80;61.67
72925;BME280;61070;50.794;7.054;2022-07-22T10:08:09;101371.91;;;22.11;60.25
72925;BME280;61070;50.794;7.054;2022-07-22T10:10:37;101373.41;;;21.98;59.21
72925;BME280;61070;50.794;7.054;2022-07-22T10:13:05;101366.13;;;22.00;60.12
72925;BME280;61070;50.794;7.054;2022-07-22T10:15:32;101363.66;;;21.76;61.16
72925;BME280;61070;50.794;7.054;2022-07-22T10:18:01;101368.25;;;22.12;60.62
72925;BME280;61070;50.794;7.054;2022-07-22T10:20:29;101364.09;;;21.67;60.12
72925;BME280;61070;50.794;7.054;2022-07-22T10:23:05;101357.38;;;21.57;60.52
72925;BME280;61070;50.794;7.054;2022-07-22T10:25:33;101355.72;;;22.11;58.93
72925;BME280;61070;50.794;7.054;2022-07-22T10:28:21;101352.47;;;21.84;58.64
72925;BME280;61070;50.794;7.054;2022-07-22T10:30:46;101351.38;;;22.07;59.72
72925;BME280;61070;50.794;7.054;2022-07-22T10:33:19;101353.34;;;22.22;57.45
72925;BME280;61070;50.794;7.054;2022-07-22T10:38:11;101344.13;;;22.09;57.19
72925;BME280;61070;50.794;7.054;2022-07-22T10:43:23;101346.63;;;22.48;56.91
72925;BME280;61070;50.794;7.054;2022-07-22T10:45:53;101349.78;;;22.22;58.31
72925;BME280;61070;50.794;7.054;2022-07-22T10:51:16;101341.28;;;22.64;56.93
72925;BME280;61070;50.794;7.054;2022-07-22T10:56:19;101340.75;;;22.57;58.14
72925;BME280;61070;50.794;7.054;2022-07-22T11:01:19;101338.06;;;22.92;55.68
72925;BME280;61070;50.794;7.054;2022-07-22T11:03:46;101333.66;;;23.07;55.22
72925;BME280;61070;50.794;7.054;2022-07-22T11:06:21;101340.50;;;23.47;54.52
72925;BME280;61070;50.794;7.054;2022-07-22T11:08:50;101332.13;;;23.18;54.87
72925;BME280;61070;50.794;7.054;2022-07-22T11:11:16;101335.09;;;22.97;54.20
72925;BME280;61070;50.794;7.054;2022-07-22T11:13:42;101344.19;;;23.29;53.94
72925;BME280;61070;50.794;7.054;2022-07-22T11:29:31;101324.56;;;23.74;53.69
72925;BME280;61070;50.794;7.054;2022-07-22T11:31:59;101322.03;;;23.71;53.09
72925;BME280;61070;50.794;7.054;2022-07-22T11:34:25;101320.03;;;23.74;52.26
72925;BME280;61070;50.794;7.054;2022-07-22T11:36:52;101324.78;;;24.48;51.46
72925;BME280;61070;50.794;7.054;2022-07-22T11:39:21;101311.00;;;24.81;50.76
72925;BME280;61070;50.794;7.054;2022-07-22T11:41:47;101304.63;;;24.82;50.86
72925;BME280;61070;50.794;7.054;2022-07-22T11:44:17;101312.47;;;24.27;51.70
72925;BME280;61070;50.794;7.054;2022-07-22T11:46:43;101314.22;;;24.12;52.87
72925;BME280;61070;50.794;7.054;2022-07-22T11:49:09;101309.63;;;23.67;54.44
72925;BME280;61070;50.794;7.054;2022-07-22T11:51:36;101304.09;;;23.37;54.35
72925;BME280;61070;50.794;7.054;2022-07-22T11:54:03;101305.81;;;23.22;54.93
72925;BME280;61070;50.794;7.054;2022-07-22T11:56:28;101296.06;;;23.35;55.41
72925;BME280;61070;50.794;7.054;2022-07-22T11:58:54;101293.22;;;23.21;54.84
72925;BME280;61070;50.794;7.054;2022-07-22T12:01:24;101289.09;;;22.98;54.00
72925;BME280;61070;50.794;7.054;2022-07-22T12:03:58;101292.31;;;22.89;54.33
72925;BME280;61070;50.794;7.054;2022-07-22T12:06:26;101293.97;;;22.91;54.97
72925;BME280;61070;50.794;7.054;2022-07-22T12:09:13;101289.22;;;23.61;53.24
72925;BME280;61070;50.794;7.054;2022-07-22T12:11:41;101287.06;;;23.68;52.07
72925;BME280;61070;50.794;7.054;2022-07-22T12:14:17;101288.75;;;24.00;51.48
72925;BME280;61070;50.794;7.054;2022-07-22T12:16:54;101285.63;;;23.92;51.82
72925;BME280;61070;50.794;7.054;2022-07-22T12:19:19;101274.81;;;23.61;53.66
72925;BME280;61070;50.794;7.054;2022-07-22T12:22:03;101276.00;;;23.23;54.87
72925;BME280;61070;50.794;7.054;2022-07-22T12:24:38;101274.50;;;22.85;54.92
72925;BME280;61070;50.794;7.054;2022-07-22T12:27:12;101278.00;;;23.51;53.90
72925;BME280;61070;50.794;7.054;2022-07-22T12:32:09;101274.38;;;23.84;52.49
72925;BME280;61070;50.794;7.054;2022-07-22T12:34:38;101278.28;;;24.40;51.58
72925;BME280;61070;50.794;7.054;2022-07-22T12:37:27;101276.78;;;24.04;51.99
72925;BME280;61070;50.794;7.054;2022-07-22T12:40:10;101277.19;;;24.58;51.07
72925;BME280;61070;50.794;7.054;2022-07-22T12:42:45;101263.97;;;24.96;49.43
72925;BME280;61070;50.794;7.054;2022-07-22T12:45:17;101266.13;;;25.06;50.33
72925;BME280;61070;50.794;7.054;2022-07-22T12:50:28;101269.84;;;24.30;50.97
72925;BME280;61070;50.794;7.054;2022-07-22T12:55:34;101258.78;;;24.49;50.81
72925;BME280;61070;50.794;7.054;2022-07-22T12:58:00;101243.09;;;24.40;50.79
72925;BME280;61070;50.794;7.054;2022-07-22T13:00:29;101237.81;;;24.95;49.64
72925;BME280;61070;50.794;7.054;2022-07-22T13:02:54;101234.50;;;24.48;50.35
72925;BME280;61070;50.794;7.054;2022-07-22T13:05:21;101241.16;;;24.42;50.45
72925;BME280;61070;50.794;7.054;2022-07-22T13:07:46;101223.63;;;25.06;50.31
72925;BME280;61070;50.794;7.054;2022-07-22T13:10:13;101225.16;;;25.10;48.69
72925;BME280;61070;50.794;7.054;2022-07-22T13:12:43;101223.09;;;24.85;50.00
72925;BME280;61070;50.794;7.054;2022-07-22T13:15:14;101226.53;;;25.03;49.24
72925;BME280;61070;50.794;7.054;2022-07-22T13:17:40;101213.16;;;25.14;48.67
72925;BME280;61070;50.794;7.054;2022-07-22T13:20:07;101217.97;;;25.23;47.90
72925;BME280;61070;50.794;7.054;2022-07-22T13:22:33;101209.63;;;24.98;49.50